Time;durP1;ratioP1;P1;durP2;ratioP2;P2;SDS_P1;SDS_P2;PMS_P1;PMS_P2;Temp;Humidity;BMP_temperature;BMP_pressure;BME280_temperature;BME280_humidity;BME280_pressure;Samples;Min_cycle;Max_cycle;Signal;HPM_P1;HPM_P2
2022/10/18 00:00:49;;;;;;;3.22;2.30;;;17.50;99.90;;;;;;4121911;28;20086;-64
2022/10/18 00:02:49;;;;;;;3.55;1.83;;;17.50;99.90;;;;;;4124356;28;20031;-64
2022/10/18 00:04:50;;;;;;;2.47;2.00;;;17.50;99.90;;;;;;4126347;28;20038;-64
2022/10/18 00:06:51;;;;;;;2.85;2.15;;;17.50;99.90;;;;;;4114915;28;20042;-64
2022/10/18 00:08:51;;;;;;;3.25;1.98;;;17.50;99.90;;;;;;4120385;28;20034;-63
2022/10/18 00:10:52;;;;;;;2.72;1.83;;;17.50;99.90;;;;;;4122725;28;20085;-64
2022/10/18 00:12:53;;;;;;;4.18;2.00;;;17.50;99.90;;;;;;4115005;28;20462;-65
2022/10/18 00:14:54;;;;;;;2.20;2.00;;;17.50;99.90;;;;;;4136362;28;20074;-64
2022/10/18 00:16:54;;;;;;;2.20;2.00;;;17.50;99.90;;;;;;4123900;28;20154;-64
2022/10/18 00:18:55;;;;;;;2.95;1.90;;;17.50;99.90;;;;;;4125845;28;20034;-64
2022/10/18 00:21:01;;;;;;;2.65;1.67;;;17.50;99.90;;;;;;4117962;28;20035;-66
2022/10/18 00:23:01;;;;;;;3.65;2.22;;;17.50;99.90;;;;;;4116660;28;20166;-64
2022/10/18 00:25:02;;;;;;;2.70;2.00;;;17.50;99.90;;;;;;4122593;28;20097;-65
2022/10/18 00:27:03;;;;;;;3.30;2.25;;;17.50;99.90;;;;;;4136239;28;20050;-65
2022/10/18 00:29:05;;;;;;;3.72;2.00;;;17.50;99.90;;;;;;4147972;28;20042;-64
2022/10/18 00:31:17;;;;;;;1.77;1.63;;;17.50;99.90;;;;;;4142227;28;20403;-64
2022/10/18 00:33:18;;;;;;;2.03;1.70;;;17.50;99.90;;;;;;4135964;28;20037;-64
2022/10/18 00:35:18;;;;;;;2.20;1.85;;;17.40;99.90;;;;;;4155190;28;20036;-64
2022/10/18 00:37:19;;;;;;;2.30;1.70;;;17.50;99.90;;;;;;4135484;28;20340;-64
2022/10/18 00:39:20;;;;;;;2.60;1.90;;;17.50;99.90;;;;;;4136264;28;20044;-64
2022/10/18 00:41:27;;;;;;;1.88;1.65;;;17.50;99.90;;;;;;4135650;28;20027;-64
2022/10/18 00:43:28;;;;;;;3.92;2.00;;;17.50;99.90;;;;;;4139969;28;20038;-66
2022/10/18 00:45:29;;;;;;;2.42;2.00;;;17.50;99.90;;;;;;4147560;28;20030;-65
2022/10/18 00:47:30;;;;;;;2.80;1.80;;;17.50;99.90;;;;;;4138595;28;20030;-64
2022/10/18 00:49:35;;;;;;;2.50;1.80;;;17.50;99.90;;;;;;4155317;28;20029;-64
2022/10/18 00:51:43;;;;;;;1.75;1.60;;;17.50;99.90;;;;;;4154792;28;20029;-65
2022/10/18 00:53:43;;;;;;;3.03;1.90;;;17.50;99.90;;;;;;4137271;28;20137;-65
2022/10/18 00:55:44;;;;;;;2.30;1.95;;;17.50;99.90;;;;;;4136157;28;21340;-64
2022/10/18 00:57:46;;;;;;;3.22;1.98;;;17.50;99.90;;;;;;4141590;28;20050;-65
2022/10/18 00:59:46;;;;;;;2.15;1.83;;;17.50;99.90;;;;;;4140573;28;20037;-64
2022/10/18 01:01:47;;;;;;;2.67;1.83;;;17.50;99.90;;;;;;4134154;28;20510;-68
2022/10/18 01:03:49;;;;;;;2.95;1.92;;;17.50;99.90;;;;;;4138336;28;20077;-68
2022/10/18 01:05:50;;;;;;;2.13;1.80;;;17.50;99.90;;;;;;4150012;28;20471;-67
2022/10/18 01:08:09;;;;;;;2.03;1.83;;;17.50;99.90;;;;;;4136790;28;20038;-68
2022/10/18 01:10:46;;;;;;;2.17;1.67;;;17.50;99.90;;;;;;4132282;28;20581;-68
2022/10/18 01:13:35;;;;;;;3.95;1.77;;;17.50;99.90;;;;;;4143954;28;20076;-68
2022/10/18 01:15:50;;;;;;;3.17;2.33;;;17.50;99.90;;;;;;4132073;28;20030;-68
2022/10/18 01:18:24;;;;;;;2.20;2.00;;;17.50;99.90;;;;;;4140504;28;20026;-68
2022/10/18 01:20:45;;;;;;;3.95;2.10;;;17.50;99.90;;;;;;4137504;28;20036;-68
2022/10/18 01:23:12;;;;;;;3.35;2.05;;;17.50;99.90;;;;;;4139633;28;20045;-68
2022/10/18 01:25:44;;;;;;;2.10;1.90;;;17.50;99.90;;;;;;4137468;28;20026;-68
2022/10/18 01:27:51;;;;;;;2.80;2.30;;;17.50;99.90;;;;;;4136067;28;20030;-68
2022/10/18 01:30:26;;;;;;;4.30;2.60;;;17.50;99.90;;;;;;4142477;28;20041;-68
2022/10/18 01:32:31;;;;;;;3.20;2.17;;;17.40;99.90;;;;;;4143410;28;20193;-68
2022/10/18 01:34:35;;;;;;;4.78;1.85;;;17.50;99.90;;;;;;4137374;28;20451;-68
2022/10/18 01:36:50;;;;;;;2.90;1.88;;;17.40;99.90;;;;;;4137089;28;20040;-68
2022/10/18 01:38:54;;;;;;;2.28;1.90;;;17.50;99.90;;;;;;4145916;28;20030;-68
2022/10/18 01:40:56;;;;;;;2.83;2.30;;;17.50;99.90;;;;;;4136756;28;20041;-68
2022/10/18 01:42:57;;;;;;;3.80;1.80;;;17.40;99.90;;;;;;4124612;28;20057;-68
2022/10/18 01:45:00;;;;;;;2.53;2.00;;;17.40;99.90;;;;;;4155507;28;20026;-69
2022/10/18 01:47:01;;;;;;;3.72;2.10;;;17.40;99.90;;;;;;4138530;28;20116;-68
2022/10/18 01:49:03;;;;;;;3.53;2.17;;;17.40;99.90;;;;;;4140740;28;20072;-68
2022/10/18 01:51:04;;;;;;;3.50;2.10;;;17.40;99.90;;;;;;4136793;28;20030;-68
2022/10/18 01:53:05;;;;;;;1.90;1.65;;;17.40;99.90;;;;;;4138155;28;20042;-68
2022/10/18 01:55:06;;;;;;;2.90;2.00;;;17.40;99.90;;;;;;4135880;28;20042;-68
2022/10/18 01:57:33;;;;;;;2.40;1.88;;;17.40;99.90;;;;;;4143552;28;20466;-68
2022/10/18 01:59:46;;;;;;;2.67;1.92;;;17.40;99.90;;;;;;4157618;28;20033;-68
2022/10/18 02:02:21;;;;;;;3.07;2.17;;;17.40;99.90;;;;;;4137505;28;20459;-68
2022/10/18 02:04:28;;;;;;;3.47;2.15;;;17.40;99.90;;;;;;4131704;28;20043;-65
2022/10/18 02:06:34;;;;;;;2.45;2.10;;;17.40;99.90;;;;;;4133462;28;20113;-66
2022/10/18 02:08:45;;;;;;;2.65;2.10;;;17.40;99.90;;;;;;4134774;28;20041;-66
2022/10/18 02:11:08;;;;;;;2.38;2.17;;;17.40;99.90;;;;;;4136339;28;20108;-65
2022/10/18 02:13:13;;;;;;;3.35;2.22;;;17.50;99.90;;;;;;4137607;28;20034;-65
2022/10/18 02:15:18;;;;;;;2.25;2.00;;;17.40;99.90;;;;;;4160996;28;20037;-65
2022/10/18 02:17:20;;;;;;;2.60;2.17;;;17.40;99.90;;;;;;4148824;28;20041;-66
2022/10/18 02:19:30;;;;;;;2.38;1.98;;;17.50;99.90;;;;;;4154800;28;20025;-66
2022/10/18 02:21:32;;;;;;;2.67;2.20;;;17.40;99.90;;;;;;4141535;28;20446;-66
2022/10/18 02:23:33;;;;;;;3.47;2.50;;;17.40;99.90;;;;;;4124014;28;20395;-67
2022/10/18 02:25:34;;;;;;;2.97;1.88;;;17.40;99.90;;;;;;4124457;28;20085;-67
2022/10/18 02:27:36;;;;;;;2.85;2.28;;;17.40;99.90;;;;;;4122681;28;20034;-66
2022/10/18 02:29:39;;;;;;;2.42;2.05;;;17.40;99.90;;;;;;4123815;28;20035;-67
2022/10/18 02:31:49;;;;;;;9.05;2.65;;;17.40;99.90;;;;;;4103609;28;20031;-66
2022/10/18 02:33:55;;;;;;;3.75;1.90;;;17.40;99.90;;;;;;4126915;28;20050;-65
2022/10/18 02:36:03;;;;;;;2.67;2.25;;;17.40;99.90;;;;;;4122330;28;20030;-66
2022/10/18 02:38:05;;;;;;;2.55;1.95;;;17.40;99.90;;;;;;4118576;28;20083;-66
2022/10/18 02:40:09;;;;;;;4.05;2.90;;;17.40;99.90;;;;;;4118911;28;20034;-66
2022/10/18 02:42:10;;;;;;;3.97;2.72;;;17.50;99.90;;;;;;4139356;28;20065;-65
2022/10/18 02:44:11;;;;;;;2.42;2.22;;;17.50;99.90;;;;;;4153999;28;20073;-66
2022/10/18 02:46:11;;;;;;;2.83;2.25;;;17.40;99.90;;;;;;4141350;28;20045;-65
2022/10/18 02:48:12;;;;;;;2.80;2.35;;;17.40;99.90;;;;;;4139488;28;20503;-65
2022/10/18 02:50:13;;;;;;;2.83;2.17;;;17.50;99.90;;;;;;4139373;28;20042;-66
2022/10/18 02:52:13;;;;;;;2.42;2.05;;;17.40;99.90;;;;;;4140988;28;20042;-65
2022/10/18 02:54:14;;;;;;;4.68;2.38;;;17.40;99.90;;;;;;4137426;28;20436;-65
2022/10/18 02:56:15;;;;;;;3.60;2.20;;;17.40;99.90;;;;;;4149394;28;20427;-66
2022/10/18 02:58:16;;;;;;;3.78;2.25;;;17.40;99.90;;;;;;4134783;28;20427;-66
2022/10/18 03:00:16;;;;;;;4.78;2.33;;;17.40;99.90;;;;;;4133594;28;20105;-66
2022/10/18 03:02:17;;;;;;;3.05;2.45;;;17.40;99.90;;;;;;4139913;28;20121;-68
2022/10/18 03:04:17;;;;;;;3.42;2.53;;;17.40;99.90;;;;;;4135607;28;20061;-65
2022/10/18 03:06:18;;;;;;;3.10;2.50;;;17.40;99.90;;;;;;4142123;28;20038;-66
2022/10/18 03:08:21;;;;;;;4.13;2.30;;;17.40;99.90;;;;;;4148599;28;20109;-65
2022/10/18 03:10:22;;;;;;;2.22;1.98;;;17.40;99.90;;;;;;4137158;28;20057;-65
2022/10/18 03:12:22;;;;;;;3.90;2.60;;;17.40;99.90;;;;;;4154352;28;20519;-65
2022/10/18 03:14:23;;;;;;;3.47;2.33;;;17.40;99.90;;;;;;4142654;28;20034;-66
2022/10/18 03:16:24;;;;;;;13.30;2.53;;;17.40;99.90;;;;;;4152198;28;20506;-65
2022/10/18 03:18:25;;;;;;;4.88;2.20;;;17.40;99.90;;;;;;4142765;28;20076;-65
2022/10/18 03:20:26;;;;;;;2.70;1.90;;;17.40;99.90;;;;;;4137194;28;20479;-65
2022/10/18 03:22:27;;;;;;;3.88;2.50;;;17.40;99.90;;;;;;4141554;28;20037;-65
2022/10/18 03:24:27;;;;;;;4.28;2.40;;;17.40;99.90;;;;;;4130690;28;20034;-65
2022/10/18 03:26:28;;;;;;;4.70;2.40;;;17.40;99.90;;;;;;4137155;28;20045;-65
2022/10/18 03:28:28;;;;;;;3.80;2.30;;;17.40;99.90;;;;;;4136375;28;20038;-66
2022/10/18 03:30:29;;;;;;;4.68;2.63;;;17.40;99.90;;;;;;4135292;28;20034;-66
2022/10/18 03:32:30;;;;;;;3.10;2.28;;;17.40;99.90;;;;;;4139525;28;20123;-66
2022/10/18 03:34:30;;;;;;;3.72;2.50;;;17.30;99.90;;;;;;4132047;28;20085;-66
2022/10/18 03:36:32;;;;;;;4.10;2.65;;;17.40;99.90;;;;;;4154600;28;20542;-66
2022/10/18 03:38:33;;;;;;;3.75;2.60;;;17.40;99.90;;;;;;4139084;28;20038;-66
2022/10/18 03:40:34;;;;;;;2.92;2.50;;;17.40;99.90;;;;;;4132122;28;20044;-65
2022/10/18 03:42:34;;;;;;;4.57;2.83;;;17.40;99.90;;;;;;4133000;28;20088;-66
2022/10/18 03:44:35;;;;;;;3.63;3.22;;;17.40;99.90;;;;;;4151127;28;20041;-65
2022/10/18 03:46:36;;;;;;;4.20;2.95;;;17.40;99.90;;;;;;4134388;28;20033;-65
2022/10/18 03:48:37;;;;;;;6.57;3.38;;;17.40;99.90;;;;;;4138397;28;20033;-66
2022/10/18 03:50:38;;;;;;;4.75;2.80;;;17.40;99.90;;;;;;4154348;28;20037;-66
2022/10/18 03:52:39;;;;;;;3.38;2.85;;;17.40;99.90;;;;;;4133960;28;20044;-66
2022/10/18 03:54:39;;;;;;;4.00;2.88;;;17.40;99.90;;;;;;4140706;28;20108;-66
2022/10/18 03:56:40;;;;;;;6.45;3.05;;;17.40;99.90;;;;;;4123826;28;20042;-66
2022/10/18 03:58:40;;;;;;;2.88;2.42;;;17.30;99.90;;;;;;4125466;28;20045;-66
2022/10/18 04:00:41;;;;;;;3.35;2.40;;;17.30;99.90;;;;;;4132831;28;20113;-66
2022/10/18 04:02:42;;;;;;;3.35;2.70;;;17.30;99.90;;;;;;4153758;28;20045;-65
2022/10/18 04:04:43;;;;;;;3.75;2.60;;;17.30;99.90;;;;;;4153785;28;20817;-65
2022/10/18 04:06:46;;;;;;;7.05;2.92;;;17.30;99.90;;;;;;4131310;28;20114;-65
2022/10/18 04:08:47;;;;;;;3.10;2.50;;;17.30;99.90;;;;;;4134713;28;20399;-66
2022/10/18 04:10:48;;;;;;;3.58;2.70;;;17.30;99.90;;;;;;4109765;28;20093;-65
2022/10/18 04:12:49;;;;;;;5.78;3.03;;;17.30;99.90;;;;;;4127648;28;20042;-66
2022/10/18 04:14:52;;;;;;;3.33;2.88;;;17.30;99.90;;;;;;4121956;28;20530;-66
2022/10/18 04:16:53;;;;;;;4.28;3.28;;;17.30;99.90;;;;;;4131446;28;20029;-65
2022/10/18 04:18:57;;;;;;;4.55;3.17;;;17.30;99.90;;;;;;4140979;28;20061;-65
2022/10/18 04:21:01;;;;;;;4.63;2.97;;;17.30;99.90;;;;;;4122187;28;20038;-65
2022/10/18 04:23:04;;;;;;;8.15;3.47;;;17.40;99.90;;;;;;4152829;28;20034;-66
2022/10/18 04:25:04;;;;;;;3.88;2.90;;;17.30;99.90;;;;;;4151627;28;20048;-66
2022/10/18 04:27:06;;;;;;;6.72;3.40;;;17.30;99.90;;;;;;4138646;28;20034;-65
2022/10/18 04:29:07;;;;;;;3.80;3.40;;;17.30;99.90;;;;;;4141860;28;20517;-66
2022/10/18 04:31:08;;;;;;;4.75;3.35;;;17.30;99.90;;;;;;4135299;28;20034;-65
2022/10/18 04:33:09;;;;;;;5.80;3.45;;;17.30;99.90;;;;;;4133360;28;20495;-65
2022/10/18 04:35:10;;;;;;;5.30;3.25;;;17.40;99.90;;;;;;4135441;28;20034;-66
2022/10/18 04:37:10;;;;;;;4.00;3.30;;;17.30;99.90;;;;;;4134291;28;20045;-67
2022/10/18 04:39:11;;;;;;;4.38;3.40;;;17.30;99.90;;;;;;4137289;28;20398;-66
2022/10/18 04:41:11;;;;;;;6.05;3.40;;;17.30;99.90;;;;;;4136945;28;20115;-67
2022/10/18 04:43:12;;;;;;;5.13;2.80;;;17.40;99.90;;;;;;4137374;28;20092;-66
2022/10/18 04:45:13;;;;;;;4.78;3.53;;;17.40;99.90;;;;;;4136749;28;20034;-67
2022/10/18 04:47:13;;;;;;;3.80;3.30;;;17.30;99.90;;;;;;4140016;28;20034;-65
2022/10/18 04:49:14;;;;;;;4.30;3.60;;;17.30;99.90;;;;;;4154345;28;20751;-66
2022/10/18 04:51:15;;;;;;;4.47;3.47;;;17.30;99.90;;;;;;4142831;28;20420;-65
2022/10/18 04:53:17;;;;;;;5.65;4.03;;;17.30;99.90;;;;;;4140671;28;20558;-66
2022/10/18 04:55:18;;;;;;;5.32;4.47;;;17.30;99.90;;;;;;4139869;28;20080;-66
2022/10/18 04:57:19;;;;;;;5.65;3.75;;;17.30;99.90;;;;;;4140357;28;20558;-66
2022/10/18 04:59:20;;;;;;;4.40;3.72;;;17.30;99.90;;;;;;4153935;28;20037;-66
2022/10/18 05:01:20;;;;;;;4.93;3.85;;;17.30;99.90;;;;;;4139632;28;20038;-65
2022/10/18 05:03:21;;;;;;;4.90;3.60;;;17.30;99.90;;;;;;4154651;28;20517;-66
2022/10/18 05:05:21;;;;;;;4.75;3.78;;;17.30;99.90;;;;;;4138714;28;20042;-66
2022/10/18 05:07:22;;;;;;;5.28;4.03;;;17.30;99.90;;;;;;4143351;28;20030;-65
2022/10/18 05:09:23;;;;;;;4.50;3.72;;;17.30;99.90;;;;;;4142353;28;20104;-66
2022/10/18 05:11:24;;;;;;;4.40;4.00;;;17.30;99.90;;;;;;4156587;28;20041;-65
2022/10/18 05:13:25;;;;;;;4.30;3.60;;;17.30;99.90;;;;;;4142157;28;20089;-65
2022/10/18 05:15:25;;;;;;;4.82;4.00;;;17.30;99.90;;;;;;4147042;28;20048;-67
2022/10/18 05:17:26;;;;;;;6.30;4.15;;;17.30;99.90;;;;;;4144223;28;20049;-65
2022/10/18 05:19:27;;;;;;;5.18;4.25;;;17.30;99.90;;;;;;4142758;28;20112;-65
2022/10/18 05:21:27;;;;;;;6.28;4.32;;;17.30;99.90;;;;;;4139787;28;20387;-66
2022/10/18 05:23:28;;;;;;;4.82;3.95;;;17.30;99.90;;;;;;4138791;28;20443;-66
2022/10/18 05:25:28;;;;;;;4.75;3.80;;;17.30;99.90;;;;;;4140900;28;20042;-65
2022/10/18 05:27:29;;;;;;;5.28;3.97;;;17.30;99.90;;;;;;4136819;28;20072;-65
2022/10/18 05:29:30;;;;;;;4.82;4.13;;;17.30;99.90;;;;;;4146652;28;20083;-66
2022/10/18 05:31:30;;;;;;;6.32;4.63;;;17.40;99.90;;;;;;4141587;28;20447;-66
2022/10/18 05:33:31;;;;;;;5.38;3.95;;;17.30;99.90;;;;;;4141035;28;20787;-66
2022/10/18 05:35:32;;;;;;;5.63;4.28;;;17.40;99.90;;;;;;4137926;28;20042;-66
2022/10/18 05:37:33;;;;;;;4.78;3.85;;;17.30;99.90;;;;;;4139796;28;20041;-67
2022/10/18 05:39:33;;;;;;;6.30;3.70;;;17.30;99.90;;;;;;4140761;28;20038;-66
2022/10/18 05:41:35;;;;;;;6.15;4.15;;;17.30;99.90;;;;;;4155477;28;20041;-66
2022/10/18 05:43:35;;;;;;;7.35;4.60;;;17.30;99.90;;;;;;4138593;28;20041;-67
2022/10/18 05:45:36;;;;;;;5.80;4.53;;;17.20;99.90;;;;;;4156035;28;20033;-65
2022/10/18 05:47:37;;;;;;;4.63;4.00;;;17.20;99.90;;;;;;4142499;28;20045;-66
2022/10/18 05:49:37;;;;;;;4.13;3.70;;;17.30;99.90;;;;;;4154809;28;20072;-66
2022/10/18 05:51:38;;;;;;;5.95;3.75;;;17.30;99.90;;;;;;4122481;28;20126;-69
2022/10/18 05:53:39;;;;;;;5.45;4.38;;;17.20;99.90;;;;;;4140268;28;20029;-64
2022/10/18 05:55:39;;;;;;;5.20;4.32;;;17.20;99.90;;;;;;4141081;28;20479;-65
2022/10/18 05:57:40;;;;;;;4.78;4.15;;;17.20;99.90;;;;;;4139073;28;20038;-64
2022/10/18 05:59:41;;;;;;;5.97;4.53;;;17.20;99.90;;;;;;4139915;28;20034;-66
2022/10/18 06:01:42;;;;;;;5.28;4.38;;;17.20;99.90;;;;;;4154029;28;20030;-64
2022/10/18 06:03:42;;;;;;;4.95;4.43;;;17.20;99.90;;;;;;4140037;28;20569;-65
2022/10/18 06:05:43;;;;;;;8.70;4.95;;;17.20;99.90;;;;;;4122479;28;20019;-65
2022/10/18 06:07:44;;;;;;;4.60;4.10;;;17.20;99.90;;;;;;4136160;28;20038;-65
2022/10/18 06:09:44;;;;;;;4.93;4.22;;;17.20;99.90;;;;;;4140607;28;20398;-66
2022/10/18 06:11:45;;;;;;;5.90;4.25;;;17.20;99.90;;;;;;4141210;28;20566;-65
2022/10/18 06:13:47;;;;;;;6.13;4.35;;;17.20;99.90;;;;;;4156531;28;20517;-64
2022/10/18 06:15:48;;;;;;;6.85;4.75;;;17.20;99.90;;;;;;4155160;28;20076;-65
2022/10/18 06:17:49;;;;;;;5.40;4.30;;;17.20;99.90;;;;;;4140487;28;20027;-64
2022/10/18 06:19:49;;;;;;;6.47;4.28;;;17.20;99.90;;;;;;4139745;28;20053;-64
2022/10/18 06:21:50;;;;;;;6.22;4.60;;;17.20;99.90;;;;;;4140622;28;20026;-64
2022/10/18 06:23:52;;;;;;;5.15;4.00;;;17.20;99.90;;;;;;4141080;28;20530;-64
2022/10/18 06:25:56;;;;;;;6.25;4.47;;;17.20;99.90;;;;;;4152101;28;20069;-65
2022/10/18 06:27:57;;;;;;;5.80;4.20;;;17.20;99.90;;;;;;4140771;28;20661;-64
2022/10/18 06:29:57;;;;;;;4.50;4.10;;;17.20;99.90;;;;;;4140512;28;20064;-64
2022/10/18 06:31:58;;;;;;;5.75;4.78;;;17.20;99.90;;;;;;4140949;28;20037;-64
2022/10/18 06:33:59;;;;;;;5.78;4.82;;;17.20;99.90;;;;;;4142008;28;20069;-64
2022/10/18 06:36:03;;;;;;;4.90;4.07;;;17.20;99.90;;;;;;4140511;28;20344;-65
2022/10/18 06:38:05;;;;;;;5.72;4.82;;;17.20;99.90;;;;;;4141196;28;20038;-64
2022/10/18 06:40:06;;;;;;;6.13;5.20;;;17.20;99.90;;;;;;4141422;28;20033;-64
2022/10/18 06:42:06;;;;;;;7.82;5.22;;;17.20;99.90;;;;;;4141055;28;20293;-64
2022/10/18 06:44:12;;;;;;;7.10;5.28;;;17.20;99.90;;;;;;4155782;28;20042;-66
2022/10/18 06:46:13;;;;;;;8.93;5.78;;;17.10;99.90;;;;;;4139600;28;20088;-65
2022/10/18 06:48:14;;;;;;;6.07;4.50;;;17.20;99.90;;;;;;4139033;28;20054;-65
2022/10/18 06:50:15;;;;;;;5.07;4.00;;;17.20;99.90;;;;;;4139171;28;20032;-64
2022/10/18 06:52:21;;;;;;;6.03;4.50;;;17.20;99.90;;;;;;4139048;28;20108;-65
2022/10/18 06:54:21;;;;;;;6.45;4.80;;;17.20;99.90;;;;;;4140173;28;20050;-65
2022/10/18 06:56:22;;;;;;;7.75;4.90;;;17.20;99.90;;;;;;4154734;28;20210;-64
2022/10/18 06:58:23;;;;;;;8.50;5.95;;;17.20;99.90;;;;;;4140875;28;20506;-65
2022/10/18 07:00:23;;;;;;;6.20;4.85;;;17.20;99.90;;;;;;4153470;28;20057;-65
2022/10/18 07:02:24;;;;;;;6.68;5.32;;;17.20;99.90;;;;;;4139414;28;20407;-64
2022/10/18 07:04:28;;;;;;;6.75;5.15;;;17.20;99.90;;;;;;4139471;28;20443;-64
2022/10/18 07:06:28;;;;;;;8.60;5.85;;;17.20;99.90;;;;;;4154483;28;20051;-65
2022/10/18 07:08:29;;;;;;;9.68;6.63;;;17.20;99.90;;;;;;4139176;28;20030;-66
2022/10/18 07:10:30;;;;;;;11.98;7.57;;;17.20;99.90;;;;;;4138658;28;20077;-64
2022/10/18 07:12:31;;;;;;;11.00;7.38;;;17.20;99.90;;;;;;4139809;28;20392;-65
2022/10/18 07:14:31;;;;;;;14.10;8.73;;;17.20;99.90;;;;;;4139770;28;20049;-64
2022/10/18 07:16:33;;;;;;;13.52;9.02;;;17.20;99.90;;;;;;4139001;28;20041;-64
2022/10/18 07:18:35;;;;;;;14.43;9.32;;;17.20;99.90;;;;;;4153104;28;20483;-66
2022/10/18 07:20:36;;;;;;;16.20;9.40;;;17.20;99.90;;;;;;4137336;28;20096;-65
2022/10/18 07:22:37;;;;;;;17.60;11.18;;;17.20;99.90;;;;;;4139747;28;20042;-64
2022/10/18 07:24:37;;;;;;;25.90;15.25;;;17.20;99.90;;;;;;4140681;28;20049;-65
2022/10/18 07:26:38;;;;;;;22.35;13.48;;;17.10;99.90;;;;;;4139608;28;20046;-65
2022/10/18 07:28:39;;;;;;;27.17;16.20;;;17.00;99.90;;;;;;4136952;28;20404;-65
2022/10/18 07:30:39;;;;;;;20.50;14.20;;;17.00;99.90;;;;;;4139220;28;20049;-64
2022/10/18 07:32:40;;;;;;;20.45;13.32;;;16.90;99.90;;;;;;4141071;28;20062;-65
2022/10/18 07:34:40;;;;;;;22.48;14.80;;;16.90;99.90;;;;;;4137876;28;20038;-64
2022/10/18 07:36:41;;;;;;;25.90;16.05;;;16.90;99.90;;;;;;4139851;28;20100;-64
2022/10/18 07:38:42;;;;;;;19.98;13.88;;;16.80;99.90;;;;;;4141336;28;20136;-65
2022/10/18 07:40:42;;;;;;;18.77;12.30;;;16.80;99.90;;;;;;4140474;28;20124;-64
2022/10/18 07:42:43;;;;;;;17.98;12.45;;;16.90;99.90;;;;;;4140393;28;20263;-65
2022/10/18 07:44:43;;;;;;;18.38;12.75;;;16.80;99.90;;;;;;4156786;28;20049;-65
2022/10/18 07:46:44;;;;;;;16.40;11.60;;;16.90;99.90;;;;;;4139700;28;20037;-65
2022/10/18 07:48:45;;;;;;;26.23;15.77;;;16.90;99.90;;;;;;4154872;28;20030;-65
2022/10/18 07:50:46;;;;;;;20.38;13.93;;;16.80;99.90;;;;;;4138346;28;20113;-65
2022/10/18 07:52:46;;;;;;;22.35;15.45;;;16.80;99.90;;;;;;4138846;28;20387;-64
2022/10/18 07:54:47;;;;;;;21.77;15.02;;;16.80;99.90;;;;;;4153624;28;20125;-65
2022/10/18 07:56:47;;;;;;;25.35;14.63;;;16.70;99.90;;;;;;4138536;28;20030;-65
2022/10/18 07:58:51;;;;;;;20.67;13.52;;;16.70;99.90;;;;;;4154746;28;20052;-64
2022/10/18 08:00:51;;;;;;;16.63;11.95;;;16.70;99.90;;;;;;4139398;28;20046;-64
2022/10/18 08:02:56;;;;;;;18.02;12.00;;;16.70;99.90;;;;;;4140579;28;20129;-65
2022/10/18 08:04:56;;;;;;;20.58;13.50;;;16.70;99.90;;;;;;4139955;28;20034;-65
2022/10/18 08:06:57;;;;;;;19.17;13.27;;;16.70;99.90;;;;;;4138638;28;21132;-64
2022/10/18 08:08:58;;;;;;;18.70;13.25;;;16.70;99.90;;;;;;4139925;28;20040;-65
2022/10/18 08:11:03;;;;;;;19.13;12.60;;;16.70;99.90;;;;;;4138409;28;20619;-64
2022/10/18 08:13:04;;;;;;;17.83;12.35;;;16.70;99.90;;;;;;4138540;28;20069;-64
2022/10/18 08:15:05;;;;;;;16.60;12.38;;;16.70;99.90;;;;;;4154732;28;20053;-65
2022/10/18 08:17:06;;;;;;;21.23;13.57;;;16.70;99.90;;;;;;4138223;28;20132;-64
2022/10/18 08:19:06;;;;;;;17.38;12.57;;;16.70;99.90;;;;;;4137747;28;20038;-64
2022/10/18 08:21:09;;;;;;;22.05;14.25;;;16.70;99.90;;;;;;4140024;28;20038;-64
2022/10/18 08:23:09;;;;;;;18.45;11.80;;;16.70;99.90;;;;;;4141757;28;20072;-65
2022/10/18 08:25:10;;;;;;;18.25;12.52;;;16.70;99.90;;;;;;4126897;28;20411;-64
2022/10/18 08:27:11;;;;;;;19.83;12.82;;;16.70;99.90;;;;;;4141772;28;20041;-65
2022/10/18 08:29:12;;;;;;;20.08;14.43;;;16.70;99.90;;;;;;4125697;28;20026;-65
2022/10/18 08:31:16;;;;;;;18.65;13.20;;;16.70;99.90;;;;;;4125303;28;20050;-65
2022/10/18 08:33:17;;;;;;;20.80;13.95;;;16.80;99.90;;;;;;4126213;28;20030;-66
2022/10/18 08:35:17;;;;;;;23.65;14.63;;;16.70;99.90;;;;;;4125230;28;20381;-66
2022/10/18 08:37:18;;;;;;;23.02;15.93;;;16.70;99.90;;;;;;4126525;28;20038;-66
2022/10/18 08:39:18;;;;;;;24.88;16.40;;;16.70;99.90;;;;;;4127208;28;20085;-65
2022/10/18 08:41:36;;;;;;;26.80;16.50;;;16.70;99.90;;;;;;4139696;28;20105;-68
2022/10/18 08:43:47;;;;;;;24.05;15.43;;;16.70;99.90;;;;;;4126533;28;20418;-65
2022/10/18 08:45:49;;;;;;;25.10;16.13;;;16.70;99.90;;;;;;4124597;28;20026;-66
2022/10/18 08:47:52;;;;;;;;;;;16.70;99.90;;;;;;4126434;28;20034;-65
2022/10/18 08:50:00;;;;;;;20.70;14.00;;;16.70;99.90;;;;;;4139851;28;19913;-66
2022/10/18 08:52:12;;;;;;;21.40;14.85;;;16.70;99.90;;;;;;4125522;28;20511;-65
2022/10/18 08:54:21;;;;;;;23.60;14.90;;;16.70;99.90;;;;;;4125162;28;20057;-66
2022/10/18 08:56:23;;;;;;;24.15;14.95;;;16.80;99.90;;;;;;4124780;28;20092;-65
2022/10/18 08:58:29;;;;;;;24.52;15.18;;;16.80;99.90;;;;;;4123151;28;20042;-66
2022/10/18 09:00:36;;;;;;;34.47;19.55;;;16.80;99.90;;;;;;4122371;28;20042;-66
2022/10/18 09:02:58;;;;;;;30.63;17.38;;;16.80;99.90;;;;;;4140286;28;20034;-65
2022/10/18 09:05:07;;;;;;;29.48;18.20;;;16.80;99.90;;;;;;4140046;28;20046;-67
2022/10/18 09:07:35;;;;;;;30.52;18.10;;;16.80;99.90;;;;;;4140419;28;20037;-66
2022/10/18 09:09:59;;;;;;;33.35;19.17;;;16.80;99.90;;;;;;4123820;28;20443;-66
2022/10/18 09:12:19;;;;;;;27.45;16.65;;;16.80;99.90;;;;;;4122368;28;20201;-66
2022/10/18 09:14:48;;;;;;;30.58;17.83;;;16.80;99.90;;;;;;4125243;28;20042;-65
2022/10/18 09:17:26;;;;;;;25.17;15.82;;;16.80;99.90;;;;;;4119855;28;20038;-65
2022/10/18 09:19:39;;;;;;;25.65;15.10;;;16.90;99.90;;;;;;4122246;28;20401;-66
2022/10/18 09:21:53;;;;;;;24.48;15.45;;;16.90;99.90;;;;;;4123462;28;20369;-66
2022/10/18 09:24:07;;;;;;;26.52;14.90;;;16.90;99.90;;;;;;4140110;28;20155;-66
2022/10/18 09:26:20;;;;;;;24.17;15.00;;;16.90;99.90;;;;;;4125017;28;20527;-66
2022/10/18 09:28:54;;;;;;;28.20;16.80;;;17.00;99.90;;;;;;4124595;28;20442;-66
2022/10/18 09:31:41;;;;;;;27.75;16.90;;;17.00;99.90;;;;;;4123925;28;20023;-66
2022/10/18 09:33:49;;;;;;;26.52;17.27;;;16.90;99.90;;;;;;4128086;28;20402;-66
2022/10/18 09:35:56;;;;;;;24.38;15.98;;;17.00;99.90;;;;;;4119574;28;20073;-66
2022/10/18 09:38:08;;;;;;;25.67;15.40;;;17.00;99.90;;;;;;4121549;28;20030;-66
2022/10/18 09:40:23;;;;;;;26.13;15.52;;;17.00;99.90;;;;;;4122034;28;20468;-66
2022/10/18 09:42:34;;;;;;;24.25;15.20;;;17.00;99.90;;;;;;4125115;28;20050;-66
2022/10/18 09:44:48;;;;;;;28.33;15.30;;;17.00;99.90;;;;;;4138695;28;20116;-66
2022/10/18 09:46:54;;;;;;;23.95;16.50;;;17.10;99.90;;;;;;4123728;28;20037;-66
2022/10/18 09:49:03;;;;;;;25.88;16.85;;;17.10;99.90;;;;;;4138304;28;20030;-67
2022/10/18 09:51:16;;;;;;;22.60;15.15;;;17.00;99.90;;;;;;4117690;28;20629;-66
2022/10/18 09:53:17;;;;;;;20.85;14.38;;;17.00;99.90;;;;;;4133971;28;20498;-66
2022/10/18 09:55:29;;;;;;;23.58;15.63;;;17.00;99.90;;;;;;4121449;28;20042;-65
2022/10/18 09:57:43;;;;;;;18.25;12.25;;;17.00;99.90;;;;;;4121056;28;20038;-66
2022/10/18 09:59:49;;;;;;;16.33;12.02;;;17.00;99.90;;;;;;4123630;28;20121;-66
2022/10/18 10:01:49;;;;;;;21.95;14.38;;;17.00;99.90;;;;;;4123582;28;20097;-67
2022/10/18 10:03:50;;;;;;;25.17;14.70;;;17.10;99.90;;;;;;4138352;28;20038;-66
2022/10/18 10:06:10;;;;;;;17.98;12.68;;;17.10;99.90;;;;;;4124092;28;20122;-66
2022/10/18 10:08:11;;;;;;;21.60;13.98;;;17.10;99.90;;;;;;4125616;28;20491;-66
2022/10/18 10:10:24;;;;;;;25.08;16.48;;;17.10;99.90;;;;;;4125195;28;20054;-66
2022/10/18 10:12:36;;;;;;;24.08;14.65;;;17.20;99.90;;;;;;4139810;28;20383;-66
2022/10/18 10:14:43;;;;;;;20.17;13.90;;;17.20;99.90;;;;;;4129638;28;20073;-66
2022/10/18 10:17:01;;;;;;;17.50;12.20;;;17.20;99.90;;;;;;4124251;28;20056;-66
2022/10/18 10:19:01;;;;;;;18.38;11.90;;;17.20;99.90;;;;;;4121441;28;20041;-66
2022/10/18 10:21:05;;;;;;;20.05;13.02;;;17.30;99.90;;;;;;4136272;28;20046;-66
2022/10/18 10:23:21;;;;;;;18.02;11.80;;;17.30;99.90;;;;;;4122081;28;21204;-66
2022/10/18 10:25:32;;;;;;;17.92;11.90;;;17.30;99.90;;;;;;4141188;28;20037;-65
2022/10/18 10:27:42;;;;;;;17.10;11.45;;;17.40;99.90;;;;;;4122394;28;20042;-65
2022/10/18 10:29:45;;;;;;;16.35;12.00;;;17.40;99.90;;;;;;4133105;28;20046;-66
2022/10/18 10:32:01;;;;;;;16.63;10.68;;;17.40;99.90;;;;;;4137894;28;20411;-69
2022/10/18 10:34:14;;;;;;;18.42;11.23;;;17.40;99.90;;;;;;4139454;28;20389;-66
2022/10/18 10:36:20;;;;;;;24.85;14.23;;;17.50;99.90;;;;;;4138532;28;20458;-66
2022/10/18 10:38:25;;;;;;;23.23;13.82;;;17.50;99.90;;;;;;4140234;28;20480;-66
2022/10/18 10:40:29;;;;;;;17.75;12.13;;;17.50;99.90;;;;;;4141322;28;20403;-66
2022/10/18 10:42:32;;;;;;;16.80;10.25;;;17.50;99.90;;;;;;4146906;28;20408;-66